createdAt,value
2018-06-22T03:37:39.517Z,50.1
2018-06-22T03:38:29.623Z,50.1
2018-06-22T03:39:19.645Z,50.1
2018-06-22T03:40:09.167Z,50.1
2018-06-22T03:40:59.519Z,50.1
2018-06-22T03:41:50.139Z,50.1
2018-06-22T03:42:39.646Z,50.1
2018-06-22T03:43:29.675Z,50.1
2018-06-22T03:44:20.013Z,50.1
2018-06-22T03:45:10.070Z,50.1
2018-06-22T03:46:00.172Z,50.1
2018-06-22T03:46:50.539Z,50
2018-06-22T03:47:40.280Z,50
2018-06-22T03:48:30.080Z,50
2018-06-22T03:49:20.410Z,50
2018-06-22T03:50:10.200Z,50
2018-06-22T03:51:00.259Z,50
2018-06-22T03:51:50.328Z,50
2018-06-22T03:52:40.936Z,50
2018-06-22T03:53:30.736Z,49.9
2018-06-22T03:54:21.065Z,49.9
2018-06-22T03:55:11.127Z,49.9
2018-06-22T03:56:00.356Z,49.9
2018-06-22T03:56:51.508Z,49.9
2018-06-22T03:57:40.205Z,49.9
2018-06-22T03:58:31.149Z,49.9
2018-06-22T03:59:21.411Z,49.9
2018-06-22T04:00:11.254Z,49.9
2018-06-22T04:01:01.004Z,49.9
2018-06-22T04:01:50.838Z,49.9
2018-06-22T04:02:41.732Z,49.9
2018-06-22T04:03:30.724Z,49.9
2018-06-22T04:04:21.551Z,49.9
2018-06-22T04:05:11.047Z,49.9
2018-06-22T04:06:01.699Z,49.9
2018-06-22T04:06:51.466Z,49.8
2018-06-22T04:07:42.119Z,49.8
2018-06-22T04:08:32.168Z,49.8
2018-06-22T04:09:21.710Z,49.8
2018-06-22T04:10:11.703Z,49.8
2018-06-22T04:11:02.365Z,49.8
2018-06-22T04:11:52.128Z,49.8
2018-06-22T04:12:42.227Z,49.8
2018-06-22T04:13:32.264Z,49.8
2018-06-22T04:14:21.834Z,49.8
2018-06-22T04:15:12.670Z,49.8
2018-06-22T04:16:02.457Z,49.8
2018-06-22T04:16:51.750Z,49.8
2018-06-22T04:17:42.104Z,49.8
2018-06-22T04:18:31.868Z,49.8
2018-06-22T04:19:22.711Z,49.8
2018-06-22T04:20:11.801Z,49.7
2018-06-22T04:21:02.563Z,49.7
2018-06-22T04:21:52.882Z,49.7
2018-06-22T04:22:42.709Z,49.7
2018-06-22T04:23:32.746Z,49.7
2018-06-22T04:24:22.737Z,49.7
2018-06-22T04:25:13.467Z,49.7
2018-06-22T04:26:03.242Z,49.7
2018-06-22T04:26:53.259Z,49.7
2018-06-22T04:27:43.592Z,49.6
2018-06-22T04:28:33.674Z,49.6
2018-06-22T04:29:23.730Z,49.6
2018-06-22T04:30:12.995Z,49.6
2018-06-22T04:31:03.659Z,49.6
2018-06-22T04:31:53.944Z,49.6
2018-06-22T04:32:43.721Z,49.6
2018-06-22T04:33:34.091Z,49.6
2018-06-22T04:34:23.610Z,49.6
2018-06-22T04:35:12.890Z,49.6
2018-06-22T04:36:04.293Z,49.6
2018-06-22T04:36:54.359Z,49.6
2018-06-22T04:37:44.397Z,49.6
2018-06-22T04:38:34.403Z,49.6
2018-06-22T04:39:24.235Z,49.5
2018-06-22T04:40:14.002Z,49.5
2018-06-22T04:41:03.829Z,49.5
2018-06-22T04:41:54.439Z,49.5
2018-06-22T04:42:43.918Z,49.5
2018-06-22T04:43:34.554Z,49.5
2018-06-22T04:44:24.911Z,49.5
2018-06-22T04:45:14.700Z,49.5
2018-06-22T04:46:05.069Z,49.5
2018-06-22T04:46:54.803Z,49.4
2018-06-22T04:47:45.407Z,49.4
2018-06-22T04:48:34.388Z,49.4
2018-06-22T04:49:24.989Z,49.4
2018-06-22T04:50:15.398Z,49.4
2018-06-22T04:51:05.159Z,49.4
2018-06-22T04:51:55.270Z,49.4
2018-06-22T04:52:44.605Z,49.4
2018-06-22T04:53:35.388Z,49.3
2018-06-22T04:54:25.733Z,49.3
2018-06-22T04:55:15.731Z,49.3
2018-06-22T04:56:05.556Z,49.3
2018-06-22T04:56:55.568Z,49.3
2018-06-22T04:57:45.647Z,49.3
2018-06-22T04:58:35.962Z,49.3
2018-06-22T04:59:25.757Z,49.3
2018-06-22T05:00:15.850Z,49.3
2018-06-22T05:01:06.201Z,49.3
2018-06-22T05:01:55.962Z,49.3
2018-06-22T05:02:45.802Z,49.3
2018-06-22T05:03:36.760Z,49.3
2018-06-22T05:04:26.163Z,49.3
2018-06-22T05:05:16.567Z,49.3
2018-06-22T05:06:06.610Z,49.3
2018-06-22T05:06:56.105Z,49.2
2018-06-22T05:07:46.443Z,49.2
2018-06-22T05:08:36.784Z,49.2
2018-06-22T05:09:27.405Z,49.2
2018-06-22T05:10:16.396Z,49.2
2018-06-22T05:11:06.410Z,49.2
2018-06-22T05:11:57.024Z,49.2
2018-06-22T05:12:46.855Z,49.2
2018-06-22T05:13:37.155Z,49.1
2018-06-22T05:14:27.225Z,49.1
2018-06-22T05:15:17.020Z,49.1
2018-06-22T05:16:06.804Z,49.1
2018-06-22T05:16:57.170Z,49.1
2018-06-22T05:17:47.217Z,49.1
2018-06-22T05:18:37.280Z,49.1
2018-06-22T05:19:27.613Z,49.1
2018-06-22T05:20:17.688Z,49.1
2018-06-22T05:21:07.461Z,49.1
2018-06-22T05:21:57.821Z,49.1
2018-06-22T05:22:48.526Z,49.1
2018-06-22T05:23:37.365Z,49.1
2018-06-22T05:24:28.014Z,49.1
2018-06-22T05:25:17.859Z,49.1
2018-06-22T05:26:08.127Z,49
2018-06-22T05:26:57.328Z,49.1
2018-06-22T05:27:48.038Z,49
2018-06-22T05:28:37.783Z,49
2018-06-22T05:29:28.093Z,49
2018-06-22T05:30:18.490Z,49
2018-06-22T05:31:08.230Z,49
2018-06-22T05:31:58.316Z,49
2018-06-22T05:32:48.631Z,48.9
2018-06-22T05:33:38.469Z,49
2018-06-22T05:34:28.463Z,48.9
2018-06-22T05:35:18.552Z,48.9
2018-06-22T05:36:08.446Z,48.9
2018-06-22T05:36:59.031Z,48.9
2018-06-22T05:37:48.178Z,48.8
2018-06-22T05:38:38.804Z,48.8
2018-06-22T05:39:28.651Z,48.8
2018-06-22T05:40:19.211Z,48.8
2018-06-22T05:41:09.289Z,48.8
2018-06-22T05:41:59.054Z,48.8
2018-06-22T05:42:49.395Z,48.8
2018-06-22T05:43:38.900Z,48.8
2018-06-22T05:44:29.002Z,48.8
2018-06-22T05:45:19.012Z,48.8
2018-06-22T05:46:08.806Z,48.7
2018-06-22T05:46:59.723Z,48.7
2018-06-22T05:47:49.517Z,48.7
2018-06-22T05:48:39.298Z,48.7
2018-06-22T05:49:29.186Z,48.7
2018-06-22T05:50:20.005Z,48.7
2018-06-22T05:51:09.228Z,48.7
2018-06-22T05:51:59.874Z,48.6
2018-06-22T05:52:49.627Z,48.6
2018-06-22T05:53:40.001Z,48.6
2018-06-22T05:54:29.556Z,48.6
2018-06-22T05:55:19.606Z,48.6
2018-06-22T05:56:10.461Z,48.6
2018-06-22T05:57:00.508Z,48.6
2018-06-22T05:57:50.271Z,48.6
2018-06-22T05:58:40.651Z,48.6
2018-06-22T05:59:29.858Z,48.6
2018-06-22T06:00:20.464Z,48.6
2018-06-22T06:01:10.814Z,48.6
2018-06-22T06:02:00.664Z,48.6
2018-06-22T06:02:50.950Z,48.6
2018-06-22T06:03:41.610Z,48.6
2018-06-22T06:04:30.288Z,48.6
2018-06-22T06:05:21.144Z,48.6
2018-06-22T06:06:10.921Z,48.6
2018-06-22T06:07:01.291Z,48.5
2018-06-22T06:07:51.332Z,48.5
2018-06-22T06:08:41.150Z,48.5
2018-06-22T06:09:31.453Z,48.5
2018-06-22T06:10:21.272Z,48.5
2018-06-22T06:11:11.950Z,48.5
2018-06-22T06:12:01.643Z,48.5
2018-06-22T06:12:51.705Z,48.5
2018-06-22T06:13:41.510Z,48.4
2018-06-22T06:14:31.082Z,48.4
2018-06-22T06:15:21.895Z,48.4
2018-06-22T06:16:11.955Z,48.4
2018-06-22T06:17:02.120Z,48.4
2018-06-22T06:17:51.805Z,48.4
2018-06-22T06:18:42.370Z,48.4
2018-06-22T06:19:31.976Z,48.4
2018-06-22T06:20:21.549Z,48.4
2018-06-22T06:21:12.073Z,48.4
2018-06-22T06:22:01.845Z,48.4
2018-06-22T06:22:52.509Z,48.4
2018-06-22T06:23:42.280Z,48.4
2018-06-22T06:24:32.353Z,48.4
2018-06-22T06:25:22.118Z,48.4
2018-06-22T06:26:12.448Z,48.3
2018-06-22T06:27:02.540Z,48.3
2018-06-22T06:27:52.900Z,48.3
2018-06-22T06:28:42.396Z,48.3
2018-06-22T06:29:32.974Z,48.3
2018-06-22T06:30:23.080Z,48.3
2018-06-22T06:31:12.876Z,48.3
2018-06-22T06:32:02.963Z,48.3
2018-06-22T06:32:53.296Z,48.3
2018-06-22T06:33:43.058Z,48.3
2018-06-22T06:34:33.435Z,48.3
2018-06-22T06:35:23.193Z,48.3
2018-06-22T06:36:13.509Z,48.3
2018-06-22T06:37:03.288Z,48.3
2018-06-22T06:37:53.396Z,48.3
2018-06-22T06:38:43.682Z,48.3
2018-06-22T06:39:33.832Z,48.3
2018-06-22T06:40:23.902Z,48.2
2018-06-22T06:41:13.901Z,48.2
2018-06-22T06:42:03.000Z,48.2
2018-06-22T06:42:53.740Z,48.2
2018-06-22T06:43:43.240Z,48.2
2018-06-22T06:44:34.192Z,48.2
2018-06-22T06:45:23.952Z,48.2
2018-06-22T06:46:14.306Z,48.1
2018-06-22T06:47:03.807Z,48.1
2018-06-22T06:47:54.430Z,48.1
2018-06-22T06:48:43.920Z,48.1
2018-06-22T06:49:34.701Z,48.1
2018-06-22T06:50:24.347Z,48.1
2018-06-22T06:51:14.707Z,48.1
2018-06-22T06:52:04.732Z,48.1
2018-06-22T06:52:54.514Z,48.1
2018-06-22T06:53:44.320Z,48.1
2018-06-22T06:54:34.664Z,48.1
2018-06-22T06:55:24.232Z,48.1
2018-06-22T06:56:15.088Z,48.1
2018-06-22T06:57:04.600Z,48.1
2018-06-22T06:57:54.666Z,48.1
2018-06-22T06:58:45.278Z,48.1
2018-06-22T06:59:35.371Z,48.1
2018-06-22T07:00:25.389Z,48.1
2018-06-22T07:01:15.206Z,48
2018-06-22T07:02:05.556Z,48
2018-06-22T07:02:54.733Z,48
2018-06-22T07:03:44.814Z,48
2018-06-22T07:04:35.439Z,48
2018-06-22T07:05:25.512Z,48
2018-06-22T07:06:15.372Z,48
2018-06-22T07:07:05.942Z,47.9
2018-06-22T07:07:56.040Z,47.9
2018-06-22T07:08:45.746Z,47.9
2018-06-22T07:09:36.103Z,47.9
2018-06-22T07:10:26.181Z,47.9
2018-06-22T07:11:16.263Z,47.9
2018-06-22T07:12:06.032Z,47.9
2018-06-22T07:12:56.363Z,47.9
2018-06-22T07:13:46.147Z,47.9
2018-06-22T07:14:36.491Z,47.9
2018-06-22T07:15:26.554Z,47.9
2018-06-22T07:16:16.337Z,47.9
2018-06-22T07:17:06.609Z,47.9
2018-06-22T07:17:56.782Z,47.9
2018-06-22T07:18:46.873Z,47.9
2018-06-22T07:19:36.119Z,47.9
2018-06-22T07:20:26.660Z,47.9
2018-06-22T07:21:17.002Z,47.9
2018-06-22T07:22:06.802Z,47.8
2018-06-22T07:22:56.568Z,47.9
2018-06-22T07:23:47.245Z,47.8
2018-06-22T07:24:37.006Z,47.8
2018-06-22T07:25:26.790Z,47.8
2018-06-22T07:26:16.541Z,47.8
2018-06-22T07:27:06.714Z,47.8
2018-06-22T07:27:57.246Z,47.8
2018-06-22T07:28:47.588Z,47.8
2018-06-22T07:29:37.403Z,47.8
2018-06-22T07:30:27.451Z,47.8
2018-06-22T07:31:17.803Z,47.8
2018-06-22T07:32:07.894Z,47.8
2018-06-22T07:32:57.071Z,47.8
2018-06-22T07:33:47.976Z,47.8
2018-06-22T07:34:37.501Z,47.8
2018-06-22T07:35:27.901Z,47.7
2018-06-22T07:36:17.964Z,47.7
2018-06-22T07:37:07.980Z,47.7
2018-06-22T07:37:57.729Z,47.7
2018-06-22T07:38:48.401Z,47.6
2018-06-22T07:39:37.305Z,47.6
2018-06-22T07:40:28.499Z,47.6
2018-06-22T07:41:17.816Z,47.6
2018-06-22T07:42:08.625Z,47.6
2018-06-22T07:42:58.471Z,47.5
2018-06-22T07:43:48.573Z,47.4
2018-06-22T07:44:38.516Z,47.4
2018-06-22T07:45:27.846Z,47.4
2018-06-22T07:46:18.664Z,47.4
2018-06-22T07:47:09.032Z,47.4
2018-06-22T07:47:59.066Z,47.4
2018-06-22T07:48:48.839Z,47.4
2018-06-22T07:49:38.658Z,47.4
2018-06-22T07:50:28.980Z,47.5
2018-06-22T07:51:18.777Z,47.5
2018-06-22T07:52:09.394Z,47.6
2018-06-22T07:52:59.193Z,47.6
2018-06-22T07:53:49.285Z,47.6
2018-06-22T07:54:39.033Z,47.7
2018-06-22T07:55:29.098Z,47.8
2018-06-22T07:56:19.443Z,47.8
2018-06-22T07:57:09.921Z,47.8
2018-06-22T07:58:00.095Z,47.9
2018-06-22T07:58:49.959Z,47.9
2018-06-22T07:59:40.000Z,47.9
2018-06-22T08:00:30.099Z,47.9
2018-06-22T08:01:20.127Z,48
2018-06-22T08:02:10.159Z,48.1
2018-06-22T08:02:59.744Z,48.1
2018-06-22T08:03:50.006Z,48.3
2018-06-22T08:04:40.362Z,48.3
2018-06-22T08:05:30.420Z,48.4
2018-06-22T08:06:20.885Z,48.4
2018-06-22T08:07:10.556Z,48.5
2018-06-22T08:08:00.612Z,48.6
2018-06-22T08:08:50.696Z,48.6
2018-06-22T08:09:40.571Z,48.7
2018-06-22T08:10:30.815Z,48.8
2018-06-22T08:11:20.591Z,48.8
2018-06-22T08:12:10.436Z,48.9
2018-06-22T08:13:01.034Z,48.9
2018-06-22T08:13:50.812Z,49
2018-06-22T08:14:41.136Z,49.1
2018-06-22T08:15:30.676Z,49.1
2018-06-22T08:16:21.275Z,49.2
2018-06-22T08:17:11.323Z,49.3
2018-06-22T08:18:01.389Z,49.3
2018-06-22T08:18:51.538Z,49.3
2018-06-22T08:19:41.512Z,49.4
2018-06-22T08:20:31.307Z,49.4
2018-06-22T08:21:21.712Z,49.5
2018-06-22T08:22:11.726Z,49.6
2018-06-22T08:23:01.536Z,49.6
2018-06-22T08:23:51.873Z,49.7
2018-06-22T08:24:41.431Z,49.8
2018-06-22T08:25:32.000Z,49.8
2018-06-22T08:26:21.354Z,49.9
2018-06-22T08:27:12.113Z,49.9
2018-06-22T08:28:02.231Z,49.9
2018-06-22T08:28:51.971Z,50.1
2018-06-22T08:29:41.741Z,50.1
2018-06-22T08:30:32.355Z,50.1
2018-06-22T08:31:22.443Z,50.3
2018-06-22T08:32:12.241Z,50.3
2018-06-22T08:33:02.307Z,50.4
2018-06-22T08:33:52.178Z,50.5
2018-06-22T08:34:42.443Z,50.6
2018-06-22T08:35:32.484Z,50.6
2018-06-22T08:36:22.843Z,50.7
2018-06-22T08:37:12.629Z,50.8
2018-06-22T08:38:02.206Z,50.8
2018-06-22T08:38:52.486Z,50.9
2018-06-22T08:39:42.830Z,50.9
2018-06-22T08:40:33.164Z,51
2018-06-22T08:41:22.937Z,51.1
2018-06-22T08:42:13.350Z,51.1
2018-06-22T08:43:03.077Z,51.2
2018-06-22T08:43:53.431Z,51.3
2018-06-22T08:44:43.461Z,51.3
2018-06-22T08:45:33.544Z,51.4
2018-06-22T08:46:23.057Z,51.5
2018-06-22T08:47:13.699Z,51.6
2018-06-22T08:48:03.757Z,51.6
2018-06-22T08:48:53.975Z,51.7
2018-06-22T08:49:43.656Z,51.8
2018-06-22T08:50:33.639Z,51.8
2018-06-22T08:51:23.482Z,51.9
2018-06-22T08:52:13.792Z,52
2018-06-22T08:53:03.579Z,52.1
2018-06-22T08:53:54.224Z,52.1
2018-06-22T08:54:43.967Z,52.2
2018-06-22T08:55:34.083Z,52.3
2018-06-22T08:56:24.417Z,52.3
2018-06-22T08:58:04.319Z,52.5
2018-06-22T08:58:54.570Z,52.6
2018-06-22T08:59:44.670Z,52.6
2018-06-22T09:00:34.464Z,52.7
2018-06-22T09:01:26.073Z,52.8
2018-06-22T09:02:14.599Z,52.8
2018-06-22T09:03:04.730Z,52.9
2018-06-22T09:03:54.968Z,52.9
2018-06-22T09:04:44.806Z,53.1
2018-06-22T09:05:35.119Z,53.1
2018-06-22T09:06:24.599Z,53.2
2018-06-22T09:07:14.681Z,53.3
2018-06-22T09:08:05.339Z,53.3
2018-06-22T09:08:55.354Z,53.4
2018-06-22T09:09:44.601Z,53.4
2018-06-22T09:10:35.201Z,53.5
2018-06-22T09:11:25.000Z,53.6
2018-06-22T09:12:15.621Z,53.7
2018-06-22T09:13:05.679Z,53.8
2018-06-22T09:13:55.758Z,53.8
2018-06-22T09:14:45.544Z,53.9
2018-06-22T09:15:35.888Z,53.9
2018-06-22T09:16:25.403Z,54.1
2018-06-22T09:17:15.746Z,54.1
2018-06-22T09:18:05.547Z,54.2
2018-06-22T09:18:55.605Z,54.3
2018-06-22T09:19:46.300Z,54.3
2018-06-22T09:20:36.296Z,54.4
2018-06-22T09:21:25.790Z,54.4
2018-06-22T09:22:16.132Z,54.6
2018-06-22T09:23:05.953Z,54.6
2018-06-22T09:23:56.520Z,54.7
2018-06-22T09:24:46.323Z,54.8
2018-06-22T09:25:36.660Z,54.8
2018-06-22T09:26:26.157Z,54.9
2018-06-22T09:27:16.525Z,55
2018-06-22T09:28:06.301Z,55.1
2018-06-22T09:28:56.691Z,55.1
2018-06-22T09:29:46.754Z,55.2
2018-06-22T09:30:36.536Z,55.3
2018-06-22T09:31:27.070Z,55.3
2018-06-22T09:32:16.657Z,55.4
2018-06-22T09:33:07.311Z,55.4
2018-06-22T09:33:57.406Z,55.6
2018-06-22T09:34:47.113Z,55.6
2018-06-22T09:35:37.489Z,55.7
2018-06-22T09:36:27.565Z,55.8
2018-06-22T09:37:17.621Z,55.8
2018-06-22T09:38:06.918Z,55.9
2018-06-22T09:38:57.464Z,55.9
2018-06-22T09:39:47.804Z,56.1
2018-06-22T09:40:37.871Z,56.1
2018-06-22T09:41:27.959Z,56.2
2018-06-22T09:42:17.987Z,56.3
2018-06-22T09:43:07.779Z,56.3
2018-06-22T09:43:57.567Z,56.4
2018-06-22T09:44:47.900Z,56.5
2018-06-22T09:45:38.004Z,56.6
2018-06-22T09:46:26.987Z,56.6
2018-06-22T09:47:18.101Z,56.7
2018-06-22T09:48:07.594Z,56.8
2018-06-22T09:48:57.972Z,56.9
2018-06-22T09:49:48.025Z,56.9
2018-06-22T09:50:38.083Z,57
2018-06-22T09:51:28.433Z,57.1
2018-06-22T09:52:18.792Z,57.1
2018-06-22T09:53:09.020Z,57.2
2018-06-22T09:53:58.337Z,57.3
2018-06-22T09:54:48.665Z,57.4
2018-06-22T09:55:38.464Z,57.4
2018-06-22T09:56:29.085Z,57.5
2018-06-22T09:57:18.873Z,57.6
2018-06-22T09:58:09.236Z,57.6
2018-06-22T09:58:58.453Z,57.7
2018-06-22T10:00:38.585Z,57.8
2018-06-22T10:01:28.937Z,57.9
2018-06-22T10:02:19.991Z,58
2018-06-22T10:03:09.330Z,58.1
2018-06-22T10:03:59.447Z,58.1
2018-06-22T10:04:49.818Z,58.2
2018-06-22T10:05:39.018Z,58.3
2018-06-22T10:06:29.610Z,58.3
2018-06-22T10:07:19.938Z,58.4
2018-06-22T10:08:09.894Z,58.5
2018-06-22T10:09:50.127Z,58.6
2018-06-22T10:10:40.162Z,58.8
2018-06-22T10:11:31.012Z,58.8
2018-06-22T10:12:20.005Z,58.9
2018-06-22T10:13:10.351Z,58.9
2018-06-22T10:14:00.413Z,58.9
2018-06-22T10:14:50.497Z,59.1
2018-06-22T10:15:40.558Z,59.1
2018-06-22T10:16:30.657Z,59.2
2018-06-22T10:17:20.741Z,59.3
2018-06-22T10:18:10.748Z,59.4
2018-06-22T10:19:00.585Z,59.4
2018-06-22T10:19:50.607Z,59.5
2018-06-22T10:20:40.985Z,59.6
2018-06-22T10:21:31.021Z,59.6
2018-06-22T10:22:20.576Z,59.8
2018-06-22T10:23:10.600Z,59.8
2018-06-22T10:24:00.691Z,59.8
2018-06-22T10:24:50.438Z,59.9
2018-06-22T10:25:41.362Z,60
2018-06-22T10:26:31.174Z,60.1
2018-06-22T10:27:21.626Z,60.1
2018-06-22T10:28:11.570Z,60.2
2018-06-22T10:29:00.789Z,60.3
2018-06-22T10:29:51.686Z,60.3
2018-06-22T10:30:41.190Z,60.4
2018-06-22T10:31:31.856Z,60.5
2018-06-22T10:32:21.875Z,60.6
2018-06-22T10:33:11.352Z,60.6
2018-06-22T10:34:02.330Z,60.7
2018-06-22T10:34:51.778Z,60.8
2018-06-22T10:35:41.859Z,60.9
2018-06-22T10:36:31.617Z,60.9
2018-06-22T10:37:22.293Z,60.9
2018-06-22T10:38:12.065Z,61
2018-06-22T10:39:01.810Z,61.1
2018-06-22T10:39:52.168Z,61.1
2018-06-22T10:40:42.543Z,61.1
2018-06-22T10:41:32.613Z,61.1
2018-06-22T10:42:22.389Z,61.2
2018-06-22T10:43:12.469Z,61.3
2018-06-22T10:44:02.800Z,61.3
2018-06-22T10:44:52.883Z,61.3
2018-06-22T10:45:43.038Z,61.3
2018-06-22T10:46:32.700Z,61.4
2018-06-22T10:47:23.067Z,61.4
2018-06-22T10:48:12.842Z,61.5
2018-06-22T10:49:03.197Z,61.5
2018-06-22T10:49:52.416Z,61.6
2018-06-22T10:50:43.094Z,61.6
2018-06-22T10:51:33.879Z,61.6
2018-06-22T10:52:22.601Z,61.7
2018-06-22T10:53:13.239Z,61.7
2018-06-22T10:54:02.722Z,61.7
2018-06-22T10:54:53.061Z,61.8
2018-06-22T10:55:43.138Z,61.8
2018-06-22T10:56:33.778Z,61.8
2018-06-22T10:57:23.608Z,61.8
2018-06-22T10:58:13.175Z,61.8
2018-06-22T10:59:03.938Z,61.8
2018-06-22T10:59:54.254Z,61.8
2018-06-22T11:00:44.096Z,61.8
2018-06-22T11:01:33.595Z,61.8
2018-06-22T11:02:24.223Z,61.8
2018-06-22T11:03:14.006Z,61.8
2018-06-22T11:04:04.338Z,61.8
2018-06-22T11:04:54.117Z,61.8
2018-06-22T11:05:44.840Z,61.8
2018-06-22T11:06:34.517Z,61.8
2018-06-22T11:07:24.328Z,61.8
2018-06-22T11:08:14.660Z,61.8
2018-06-22T11:09:04.747Z,61.8
2018-06-22T11:09:54.330Z,61.8
2018-06-22T11:10:44.865Z,61.8
2018-06-22T11:11:34.933Z,61.8
2018-06-22T11:12:24.723Z,61.8
2018-06-22T11:13:14.230Z,61.8
2018-06-22T11:14:06.139Z,61.8
2018-06-22T11:14:55.215Z,61.8
2018-06-22T11:15:45.342Z,61.8
2018-06-22T11:16:35.379Z,61.8
2018-06-22T11:17:25.695Z,61.8
2018-06-22T11:18:15.723Z,61.8
2018-06-22T11:19:05.589Z,61.8
2018-06-22T11:19:55.301Z,61.8
2018-06-22T11:20:45.668Z,61.8
2018-06-22T11:21:35.463Z,61.8
2018-06-22T11:22:25.228Z,61.8
2018-06-22T11:23:15.018Z,61.8
2018-06-22T11:24:05.905Z,61.8
2018-06-22T11:24:55.604Z,61.8
2018-06-22T11:25:45.826Z,61.8
2018-06-22T11:26:35.850Z,61.7
2018-06-22T11:27:25.689Z,61.8
2018-06-22T11:28:16.302Z,61.8
2018-06-22T11:29:06.090Z,61.7
2018-06-22T11:29:56.414Z,61.7
2018-06-22T11:30:46.836Z,61.8
2018-06-22T11:31:35.932Z,61.7
2018-06-22T11:32:26.555Z,61.7
2018-06-22T11:33:16.355Z,61.7
2018-06-22T11:34:06.723Z,61.7
2018-06-22T11:34:56.475Z,61.7
2018-06-22T11:35:47.357Z,61.6
2018-06-22T11:36:36.875Z,61.7
2018-06-22T11:37:26.968Z,61.7
2018-06-22T11:38:17.006Z,61.7
2018-06-22T11:39:06.777Z,61.6
2018-06-22T11:39:57.139Z,61.6
2018-06-22T11:40:47.194Z,61.6
2018-06-22T11:41:37.273Z,61.6
2018-06-22T11:42:27.067Z,61.6
2018-06-22T11:43:17.097Z,61.6
2018-06-22T11:44:07.184Z,61.6
2018-06-22T11:44:57.254Z,61.6
2018-06-22T11:45:47.588Z,61.6
2018-06-22T11:46:37.654Z,61.6
2018-06-22T11:47:27.511Z,61.6
2018-06-22T11:48:17.791Z,61.6
2018-06-22T11:49:07.564Z,61.6
2018-06-22T11:49:57.935Z,61.6
2018-06-22T11:50:47.746Z,61.6
2018-06-22T11:51:37.221Z,61.6
2018-06-22T11:52:28.116Z,61.6
2018-06-22T11:53:17.611Z,61.6
2018-06-22T11:54:07.950Z,61.6
2018-06-22T11:54:58.266Z,61.6
2018-06-22T11:55:48.118Z,61.6
2018-06-22T11:56:38.149Z,61.6
2018-06-22T11:57:27.947Z,61.6
2018-06-22T11:58:18.550Z,61.6
2018-06-22T11:59:09.227Z,61.6
2018-06-22T11:59:58.667Z,61.5
2018-06-22T12:00:48.794Z,61.5
2018-06-22T12:01:39.067Z,61.5
2018-06-22T12:02:28.582Z,61.5
2018-06-22T12:03:18.938Z,61.5
2018-06-22T12:04:08.808Z,61.5
2018-06-22T12:04:59.067Z,61.5
2018-06-22T12:05:48.861Z,61.5
2018-06-22T12:06:39.226Z,61.5
2018-06-22T12:07:29.300Z,61.5
2018-06-22T12:08:19.045Z,61.4
2018-06-22T12:09:08.830Z,61.5
2018-06-22T12:09:59.202Z,61.4
2018-06-22T12:10:49.244Z,61.4
2018-06-22T12:11:39.344Z,61.4
2018-06-22T12:12:29.377Z,61.4
2018-06-22T12:13:19.477Z,61.4
2018-06-22T12:14:09.822Z,61.4
2018-06-22T12:14:59.382Z,61.4
2018-06-22T12:15:49.342Z,61.4
2018-06-22T12:16:39.972Z,61.4
2018-06-22T12:17:30.053Z,61.4
2018-06-22T12:18:20.081Z,61.4
2018-06-22T12:19:10.474Z,61.4
2018-06-22T12:19:59.976Z,61.4
2018-06-22T12:20:50.323Z,61.4
2018-06-22T12:21:39.821Z,61.4
2018-06-22T12:22:30.176Z,61.4
2018-06-22T12:23:19.929Z,61.4
2018-06-22T12:24:10.558Z,61.4
2018-06-22T12:25:00.600Z,61.4
2018-06-22T12:25:50.410Z,61.4
2018-06-22T12:26:40.463Z,61.4
2018-06-22T12:27:30.644Z,61.4
2018-06-22T12:28:20.882Z,61.4
2018-06-22T12:29:10.106Z,61.4
2018-06-22T12:30:01.075Z,61.4
2018-06-22T12:30:51.159Z,61.3
2018-06-22T12:31:40.872Z,61.3
2018-06-22T12:32:30.915Z,61.3
2018-06-22T12:33:20.752Z,61.3
2018-06-22T12:34:11.126Z,61.3
2018-06-22T12:35:00.558Z,61.3
2018-06-22T12:35:50.915Z,61.3
2018-06-22T12:36:41.233Z,61.3
2018-06-22T12:37:31.592Z,61.3
2018-06-22T12:38:21.705Z,61.3
2018-06-22T12:39:11.427Z,61.3
2018-06-22T12:40:01.809Z,61.3
2018-06-22T12:40:51.899Z,61.3
2018-06-22T12:41:41.636Z,61.3
2018-06-22T12:42:31.984Z,61.3
2018-06-22T12:43:21.846Z,61.3
2018-06-22T12:44:12.135Z,61.3
2018-06-22T12:45:02.696Z,61.3
2018-06-22T12:45:51.956Z,61.3
2018-06-22T12:46:42.093Z,61.3
2018-06-22T12:47:32.350Z,61.3
2018-06-22T12:48:21.890Z,61.3
2018-06-22T12:49:12.492Z,61.2
2018-06-22T12:50:02.317Z,61.2
2018-06-22T12:50:52.085Z,61.2
2018-06-22T12:51:42.148Z,61.2
2018-06-22T12:52:32.212Z,61.2
2018-06-22T12:53:22.575Z,61.2
2018-06-22T12:54:12.349Z,61.2
2018-06-22T12:55:03.019Z,61.2
2018-06-22T12:55:52.477Z,61.2
2018-06-22T12:56:42.350Z,61.2
2018-06-22T12:57:33.158Z,61.2
2018-06-22T12:58:23.203Z,61.2
2018-06-22T12:59:13.322Z,61.2
2018-06-22T13:00:03.095Z,61.1
2018-06-22T13:00:53.425Z,61.1
2018-06-22T13:01:43.519Z,61.1
2018-06-22T13:02:33.298Z,61.1
2018-06-22T13:03:23.054Z,61.1
2018-06-22T13:04:13.115Z,61.1
2018-06-22T13:05:03.482Z,61.1
2018-06-22T13:05:53.045Z,61.1
2018-06-22T13:06:43.876Z,61.1
2018-06-22T13:07:33.954Z,61.1
2018-06-22T13:08:23.437Z,61.1
2018-06-22T13:09:14.036Z,61.1
2018-06-22T13:10:03.816Z,61.1
2018-06-22T13:10:54.015Z,61.1
2018-06-22T13:11:44.252Z,61.1
2018-06-22T13:12:34.164Z,61.1
2018-06-22T13:13:24.111Z,61.1
2018-06-22T13:14:13.874Z,61.1
2018-06-22T13:15:04.491Z,61.1
2018-06-22T13:15:54.545Z,61.1
2018-06-22T13:16:44.038Z,61.1
2018-06-22T13:17:34.396Z,61.1
2018-06-22T13:18:24.735Z,61.1
2018-06-22T13:19:14.821Z,61
2018-06-22T13:20:04.893Z,61
2018-06-22T13:20:54.637Z,61
2018-06-22T13:21:45.015Z,61
2018-06-22T13:22:34.232Z,61
2018-06-22T13:23:24.855Z,61
2018-06-22T13:24:15.235Z,61
2018-06-22T13:25:04.996Z,61
2018-06-22T13:25:55.306Z,61
2018-06-22T13:26:45.492Z,61
2018-06-22T13:27:35.433Z,60.9
2018-06-22T13:28:24.945Z,60.9
2018-06-22T13:29:15.555Z,60.9
2018-06-22T13:30:05.639Z,60.9
2018-06-22T13:30:55.861Z,60.9
2018-06-22T13:31:45.775Z,60.9
2018-06-22T13:32:35.001Z,60.9
2018-06-22T13:33:25.645Z,60.9
2018-06-22T13:34:15.959Z,60.9
2018-06-22T13:35:06.014Z,60.9
2018-06-22T13:35:56.072Z,60.9
2018-06-22T13:36:46.149Z,60.9
2018-06-22T13:37:36.216Z,60.9
2018-06-22T13:38:26.016Z,60.9
2018-06-22T13:39:15.817Z,60.9
2018-06-22T13:40:06.411Z,60.9
2018-06-22T13:40:55.938Z,60.9
2018-06-22T13:41:45.998Z,60.8
2018-06-22T13:42:36.610Z,60.9
2018-06-22T13:43:26.383Z,60.9
2018-06-22T13:44:16.737Z,60.9
2018-06-22T13:45:06.823Z,60.9
2018-06-22T13:45:56.877Z,60.8
2018-06-22T13:46:45.841Z,60.9
2018-06-22T13:47:36.720Z,60.8
2018-06-22T13:48:27.049Z,60.8
2018-06-22T13:49:17.132Z,60.8
2018-06-22T13:50:06.965Z,60.8
2018-06-22T13:50:56.698Z,60.8
2018-06-22T13:51:47.330Z,60.8
2018-06-22T13:52:37.418Z,60.8
2018-06-22T13:53:27.483Z,60.8
2018-06-22T13:54:17.259Z,60.8
2018-06-22T13:55:07.055Z,60.8
2018-06-22T13:55:57.096Z,60.8
2018-06-22T13:56:48.300Z,60.8
2018-06-22T13:57:37.514Z,60.8
2018-06-22T13:58:27.849Z,60.8
2018-06-22T13:59:17.629Z,60.8
2018-06-22T14:00:07.984Z,60.8
2018-06-22T14:00:57.528Z,60.8
2018-06-22T14:01:48.132Z,60.7
2018-06-22T14:02:37.891Z,60.7
2018-06-22T14:03:28.211Z,60.8
2018-06-22T14:04:18.357Z,60.7
2018-06-22T14:05:08.093Z,60.7
2018-06-22T14:05:58.165Z,60.7
2018-06-22T14:06:47.944Z,60.7
2018-06-22T14:07:38.014Z,60.7
2018-06-22T14:08:28.313Z,60.7
2018-06-22T14:09:19.058Z,60.7
2018-06-22T14:10:08.472Z,60.7
2018-06-22T14:10:58.549Z,60.7
2018-06-22T14:11:48.636Z,60.6
2018-06-22T14:12:38.447Z,60.6
2018-06-22T14:13:28.975Z,60.6
2018-06-22T14:14:19.072Z,60.6
2018-06-22T14:15:08.581Z,60.6
2018-06-22T14:15:59.183Z,60.6
2018-06-22T14:16:49.275Z,60.6
2018-06-22T14:17:39.316Z,60.6
2018-06-22T14:18:29.402Z,60.6
2018-06-22T14:19:19.443Z,60.6
2018-06-22T14:20:09.922Z,60.6
2018-06-22T14:20:59.307Z,60.6
2018-06-22T14:21:49.123Z,60.6
2018-06-22T14:22:39.151Z,60.6
2018-06-22T14:23:29.223Z,60.6
2018-06-22T14:24:19.305Z,60.6
2018-06-22T14:25:09.914Z,60.6
2018-06-22T14:25:59.952Z,60.6
2018-06-22T14:26:50.031Z,60.6
2018-06-22T14:27:39.803Z,60.6
2018-06-22T14:28:29.891Z,60.6
2018-06-22T14:29:19.991Z,60.6
2018-06-22T14:30:10.290Z,60.6
2018-06-22T14:31:00.954Z,60.6
2018-06-22T14:31:50.153Z,60.5
2018-06-22T14:32:39.902Z,60.6
2018-06-22T14:33:30.277Z,60.5
2018-06-22T14:34:20.323Z,60.5
2018-06-22T14:35:10.412Z,60.5
2018-06-22T14:36:00.454Z,60.5
2018-06-22T14:36:50.820Z,60.5
2018-06-22T14:37:40.305Z,60.5
2018-06-22T14:38:30.424Z,60.4
2018-06-22T14:39:20.245Z,60.5
2018-06-22T14:40:10.567Z,60.4
2018-06-22T14:41:00.650Z,60.5
2018-06-22T14:41:50.208Z,60.4
2018-06-22T14:42:40.213Z,60.4
2018-06-22T14:43:31.735Z,60.4
2018-06-22T14:44:20.934Z,60.4
2018-06-22T14:45:10.979Z,60.4
2018-06-22T14:46:00.773Z,60.4
2018-06-22T14:46:51.121Z,60.4
2018-06-22T14:47:40.904Z,60.4
2018-06-22T14:48:30.950Z,60.4